Detalii statie REFDANCOM [00001D06]

Toti senzorii

Date Temperatura solului [C]Precipitatii [mm]Voltaj baterie [mV]Leaf Wetness [Min]HC Air temperature [C]HC Relative humidity [%]Punctul de roua [C]
medieminmaxsumaultimatimpmedieminmaxmediemediemin
2019-08-15 21:00:00 0 6220 24.43 23.31 25.7 100 24.3 23.3
2019-08-15 22:00:00 0 6220 23.03 22.42 23.67 100 22.9 22.4
2019-08-15 23:00:00 0 6220 22.73 22.31 23.3 100 22.7 22.3
2019-08-16 00:00:00 0 6220 22.13 21.92 22.59 100 22 21.9
2019-08-16 01:00:00 0 6210 21.44 21.03 21.83 100 21.4 21
2019-08-16 02:00:00 0 6210 20.99 20.43 21.36 100 20.9 20.4
2019-08-16 03:00:00 0 6220 19.54 18.56 20.21 100 19.4 18.5
2019-08-16 04:00:00 0 6220 18.43 18.19 18.73 73.87 0
2019-08-16 05:00:00 0 6220 19.09 18.89 19.26 95.9 18.3 16.8
2019-08-16 06:00:00 0 6220 19.32 19.03 19.59 94.29 18.2 17.7
2019-08-16 07:00:00 0 6200 20.1 19.7 20.41 95.35 19.2 18.4
2019-08-16 08:00:00 0 6210 20.3 19.92 20.64 100 20.2 19.9
2019-08-16 09:00:00 0 6210 21.33 20.7 22.09 100 21.2 20.7
2019-08-16 10:00:00 0 6210 23.19 22.22 24.27 100 23.1 22.2
2019-08-16 11:00:00 0 6220 25.44 24.34 26.56 100 25.4 24.3
2019-08-16 12:00:00 0 6210 26.94 25.99 27.94 100 26.8 25.9
2019-08-16 13:00:00 0 6220 27.64 27.1 28.45 100 27.6 27.1
2019-08-16 14:00:00 0 6220 28.78 28.31 29.79 100 28.7 28.3
2019-08-16 15:00:00 0 6220 29.21 28.66 29.74 100 29.1 28.6
2019-08-16 16:00:00 0 6220 29.42 28.87 30.25 100 29.3 28.8
2019-08-16 17:00:00 0 6220 28.77 28.25 29.52 100 28.7 28.2
2019-08-16 18:00:00 0 6220 28.08 26.79 28.88 100 28 26.7
2019-08-16 19:00:00 0 6210 26.03 24.19 27.27 100 25.9 24.1
2019-08-16 20:00:00 0 6210 23.06 21.77 24.19 100 23 21.7
2019-08-16 21:00:00 0 6210 21.8 21.32 21.96 100 21.7 21.3
2019-08-16 22:00:00 0 6210 20.52 20.1 21.12 100 20.5 20.1
2019-08-16 23:00:00 0 6210 19.42 18.95 19.97 33.33 6.5 0
2019-08-17 00:00:00 0 6200 18.38 17.78 18.88 0 0 0
2019-08-17 01:00:00 0 6210 16.54 16.08 17.58 0 0 0
2019-08-17 02:00:00 0 6200 16.74 16.46 17.08 0 0 0
2019-08-17 03:00:00 0 6200 16.52 16.32 16.65 0 0 0
2019-08-17 04:00:00 0 6190 16.31 16.11 16.66 0 0 0
2019-08-17 05:00:00 0 6190 16.41 16.11 17.27 0 0 0
2019-08-17 06:00:00 0 6200 18.35 17.63 18.92 0 0 0
2019-08-17 07:00:00 0 6190 17.7 16.57 18.19 0 0 0
2019-08-17 08:00:00 0 6190 17.35 16.58 18.69 0 0 0
2019-08-17 09:00:00 0 6190 20.42 18.88 21.45 0 0 0
2019-08-17 10:00:00 0 6190 22.82 21.46 24.51 11.95 2.9 0
2019-08-17 11:00:00 0 6200 25.84 24.67 26.85 0 0 0
2019-08-17 12:00:00 0 6200 27.32 26.79 28.19 0.35 -4.5 0
2019-08-17 13:00:00 0 6200 28.91 27.36 30.09 16.66 4.8 0
2019-08-17 14:00:00 0 6210 28.45 26.69 31.32 100 28.4 26.6
2019-08-17 15:00:00 0 6200 28.73 27.81 30.02 69.68 18 0
2019-08-17 16:00:00 0 6210 29.64 28.27 30.78 92.4 26.4 -8.2
2019-08-17 17:00:00 0 6200 30 29.75 30.55 100 29.9 29.7
2019-08-17 18:00:00 0 6210 29.2 28.54 29.92 100 29.1 28.5
2019-08-17 19:00:00 0 6210 26.95 25.29 28.3 67.46 18.4 8.5
2019-08-17 20:00:00 0 6200 22.86 21.12 24.74 36.32 0